createdAt,value
2024-01-24T00:01:36.902Z,0.90
2024-01-24T00:04:04.952Z,0.80
2024-01-24T00:06:32.537Z,0.60
2024-01-24T00:09:00.057Z,0.88
2024-01-24T00:11:27.566Z,0.80
2024-01-24T00:13:56.487Z,0.60
2024-01-24T00:16:24.108Z,0.70
2024-01-24T00:18:51.782Z,1.20
2024-01-24T00:21:19.354Z,0.75
2024-01-24T00:23:46.883Z,0.75
2024-01-24T00:26:14.366Z,0.60
2024-01-24T00:28:41.910Z,0.98
2024-01-24T00:31:10.752Z,0.77
2024-01-24T00:33:38.340Z,0.80
2024-01-24T00:36:06.257Z,0.60
2024-01-24T00:38:33.764Z,0.55
2024-01-24T00:41:01.257Z,0.75
2024-01-24T00:43:28.786Z,0.70
2024-01-24T00:45:57.187Z,0.80
2024-01-24T00:48:26.296Z,0.70
2024-01-24T00:50:54.415Z,1.45
2024-01-24T00:53:22.756Z,0.52
2024-01-24T00:55:50.524Z,0.80
2024-01-24T00:58:18.037Z,0.47
2024-01-24T01:00:45.578Z,0.38
2024-01-24T01:03:13.479Z,0.20
2024-01-24T01:05:42.391Z,0.73
2024-01-24T01:08:10.052Z,0.85
2024-01-24T01:10:37.568Z,0.57
2024-01-24T01:13:05.433Z,0.80
2024-01-24T01:15:33.014Z,0.40
2024-01-24T01:18:00.620Z,0.73
2024-01-24T01:20:28.138Z,0.50
2024-01-24T01:22:56.965Z,0.60
2024-01-24T01:25:24.484Z,0.95
2024-01-24T01:27:52.236Z,0.70
2024-01-24T01:30:19.935Z,0.85
2024-01-24T01:32:47.561Z,0.88
2024-01-24T01:35:15.494Z,0.52
2024-01-24T01:37:42.996Z,0.70
2024-01-24T01:40:12.569Z,0.80
2024-01-24T01:42:44.713Z,0.73
2024-01-24T01:45:12.238Z,1.05
2024-01-24T01:47:40.193Z,0.55
2024-01-24T01:50:11.323Z,0.50
2024-01-24T01:52:39.665Z,0.50
2024-01-24T01:55:09.215Z,1.13
2024-01-24T01:57:40.978Z,0.77
2024-01-24T02:00:11.086Z,0.73
2024-01-24T02:02:38.967Z,0.88
2024-01-24T02:05:07.846Z,0.50
2024-01-24T02:07:35.476Z,0.70
2024-01-24T02:10:03.408Z,0.73
2024-01-24T02:12:30.957Z,0.50
2024-01-24T02:14:59.876Z,0.57
2024-01-24T02:17:27.418Z,0.50
2024-01-24T02:19:55.029Z,0.77
2024-01-24T02:22:22.813Z,0.60
2024-01-24T02:24:51.695Z,0.60
2024-01-24T02:27:19.302Z,0.60
2024-01-24T02:29:46.836Z,0.80
2024-01-24T02:32:14.369Z,0.65
2024-01-24T02:34:42.008Z,0.50
2024-01-24T02:37:09.665Z,0.77
2024-01-24T02:39:37.234Z,0.50
2024-01-24T02:42:06.720Z,0.60
2024-01-24T02:44:34.472Z,0.60
2024-01-24T02:47:02.012Z,0.77
2024-01-24T02:49:29.636Z,1.27
2024-01-24T02:52:02.546Z,0.60
2024-01-24T02:54:30.164Z,0.63
2024-01-24T02:56:57.701Z,0.82
2024-01-24T02:59:27.142Z,0.60
2024-01-24T03:01:54.865Z,0.60
2024-01-24T03:04:22.685Z,0.93
2024-01-24T03:06:50.378Z,0.47
2024-01-24T03:09:18.104Z,0.40
2024-01-24T03:11:45.625Z,0.40
2024-01-24T03:14:13.091Z,0.60
2024-01-24T03:16:41.948Z,0.55
2024-01-24T03:19:09.557Z,0.50
2024-01-24T03:21:37.192Z,0.55
2024-01-24T03:24:05.012Z,0.70
2024-01-24T03:26:32.572Z,0.30
2024-01-24T03:29:00.146Z,0.40
2024-01-24T03:31:27.686Z,0.80
2024-01-24T03:33:56.634Z,0.75
2024-01-24T03:36:24.312Z,0.98
2024-01-24T03:38:51.833Z,0.68
2024-01-24T03:41:19.410Z,0.50
2024-01-24T03:43:46.971Z,0.70
2024-01-24T03:46:14.501Z,0.55
2024-01-24T03:48:42.071Z,0.70
2024-01-24T03:51:12.369Z,0.30
2024-01-24T03:53:39.919Z,0.55
2024-01-24T03:56:08.128Z,0.50
2024-01-24T03:58:37.462Z,0.40
2024-01-24T04:01:05.317Z,0.60
2024-01-24T04:03:33.061Z,0.30
2024-01-24T04:06:00.979Z,0.63
2024-01-24T04:08:29.915Z,0.50
2024-01-24T04:10:57.400Z,0.57
2024-01-24T04:13:26.579Z,0.63
2024-01-24T04:15:54.125Z,0.50
2024-01-24T04:18:21.719Z,0.93
2024-01-24T04:20:49.362Z,0.85
2024-01-24T04:23:16.894Z,0.80
2024-01-24T04:25:45.729Z,0.57
2024-01-24T04:28:13.443Z,0.60
2024-01-24T04:30:41.086Z,0.68
2024-01-24T04:33:08.744Z,0.75
2024-01-24T04:35:36.353Z,0.43
2024-01-24T04:38:04.725Z,0.98
2024-01-24T04:40:32.269Z,0.77
2024-01-24T04:43:01.242Z,0.80
2024-01-24T04:45:28.808Z,0.88
2024-01-24T04:47:56.890Z,0.90
2024-01-24T04:50:25.089Z,0.90
2024-01-24T04:52:52.892Z,0.60
2024-01-24T04:55:20.416Z,0.43
2024-01-24T04:57:47.926Z,0.80
2024-01-24T05:00:17.575Z,0.65
2024-01-24T05:02:45.433Z,0.55
2024-01-24T05:05:13.001Z,0.95
2024-01-24T05:07:40.976Z,0.57
2024-01-24T05:10:09.929Z,0.93
2024-01-24T05:12:37.572Z,0.80
2024-01-24T05:15:05.914Z,0.70
2024-01-24T05:17:34.813Z,1.02
2024-01-24T05:20:02.938Z,0.57
2024-01-24T05:22:30.478Z,0.88
2024-01-24T05:24:58.097Z,1.20
2024-01-24T05:27:25.941Z,0.50
2024-01-24T05:29:53.452Z,0.68
2024-01-24T05:32:20.945Z,0.73
2024-01-24T05:34:50.628Z,0.93
2024-01-24T05:37:18.239Z,1.17
2024-01-24T05:39:45.788Z,1.00
2024-01-24T05:42:13.564Z,0.65
2024-01-24T05:44:41.238Z,0.60
2024-01-24T05:47:08.738Z,1.05
2024-01-24T05:49:37.531Z,1.00
2024-01-24T05:52:07.384Z,0.90
2024-01-24T05:54:35.177Z,13.18
2024-01-24T05:57:02.650Z,12.00
2024-01-24T05:59:30.757Z,1.80
2024-01-24T06:01:58.357Z,1.10
2024-01-24T06:04:26.169Z,1.00
2024-01-24T06:06:56.135Z,1.00
2024-01-24T06:09:25.239Z,0.70
2024-01-24T06:11:53.227Z,0.68
2024-01-24T06:14:22.663Z,0.90
2024-01-24T06:16:50.183Z,0.80
2024-01-24T06:19:18.161Z,1.05
2024-01-24T06:21:55.958Z,0.63
2024-01-24T06:24:25.813Z,1.35
2024-01-24T06:26:54.301Z,0.90
2024-01-24T06:30:14.878Z,1.13
2024-01-24T06:32:09.337Z,0.90
2024-01-24T06:34:36.918Z,1.00
2024-01-24T06:37:04.552Z,0.82
2024-01-24T06:39:33.465Z,0.80
2024-01-24T06:42:01.021Z,0.73
2024-01-24T06:44:28.540Z,0.50
2024-01-24T06:46:56.571Z,0.40
2024-01-24T06:49:24.246Z,0.60
2024-01-24T06:51:52.668Z,0.70
2024-01-24T06:54:20.313Z,0.63
2024-01-24T06:56:49.464Z,0.80
2024-01-24T06:59:17.129Z,0.55
2024-01-24T07:01:44.941Z,0.73
2024-01-24T07:04:12.720Z,1.02
2024-01-24T07:06:40.919Z,0.50
2024-01-24T07:09:08.492Z,0.77
2024-01-24T07:11:36.005Z,0.82
2024-01-24T07:14:05.348Z,0.63
2024-01-24T07:16:32.842Z,0.45
2024-01-24T07:19:00.557Z,0.50
2024-01-24T07:21:28.124Z,0.60
2024-01-24T07:23:55.641Z,0.45
2024-01-24T07:26:23.147Z,0.60
2024-01-24T07:28:50.700Z,0.60
2024-01-24T07:31:20.545Z,0.70
2024-01-24T07:33:49.317Z,0.80
2024-01-24T07:36:16.954Z,0.40
2024-01-24T07:38:44.611Z,0.55
2024-01-24T07:41:12.119Z,0.50
2024-01-24T07:43:39.641Z,0.77
2024-01-24T07:46:07.496Z,0.30
2024-01-24T07:48:36.722Z,0.73
2024-01-24T07:51:05.533Z,0.45
2024-01-24T07:53:33.419Z,0.70
2024-01-24T07:56:10.984Z,0.40
2024-01-24T07:58:48.929Z,0.70
2024-01-24T08:01:18.535Z,0.50
2024-01-24T08:03:49.678Z,0.65
2024-01-24T08:06:18.826Z,0.40
2024-01-24T08:08:46.743Z,0.50
2024-01-24T08:11:14.420Z,0.77
2024-01-24T08:13:42.279Z,0.35
2024-01-24T08:16:10.493Z,0.60
2024-01-24T08:18:38.235Z,0.50
2024-01-24T08:21:09.044Z,0.60
2024-01-24T08:23:43.094Z,0.40
2024-01-24T08:26:17.903Z,0.40
2024-01-24T08:28:45.396Z,0.40
2024-01-24T08:31:14.421Z,0.47
2024-01-24T08:33:42.300Z,0.40
2024-01-24T08:36:11.342Z,0.30
2024-01-24T08:38:38.868Z,0.20
2024-01-24T08:41:06.478Z,0.40
2024-01-24T08:43:34.028Z,0.30
2024-01-24T08:46:01.584Z,0.30
2024-01-24T08:48:30.299Z,0.47
2024-01-24T08:50:57.980Z,0.40
2024-01-24T08:53:26.898Z,0.28
2024-01-24T08:55:54.412Z,0.60
2024-01-24T08:58:22.004Z,0.30
2024-01-24T09:00:49.725Z,0.40
2024-01-24T09:03:19.976Z,0.57
2024-01-24T09:05:47.827Z,0.20
2024-01-24T09:08:15.425Z,0.40
2024-01-24T09:10:44.597Z,0.20
2024-01-24T09:13:12.198Z,0.30
2024-01-24T09:15:39.979Z,0.35
2024-01-24T09:18:08.720Z,0.32
2024-01-24T09:20:36.535Z,0.47
2024-01-24T09:23:04.212Z,0.30
2024-01-24T09:25:31.845Z,0.20
2024-01-24T09:28:00.800Z,0.20
2024-01-24T09:30:28.580Z,0.20
2024-01-24T09:32:56.546Z,0.30
2024-01-24T09:35:24.305Z,0.20
2024-01-24T09:37:51.827Z,0.20
2024-01-24T09:40:19.660Z,0.30
2024-01-24T09:42:47.693Z,0.38
2024-01-24T09:45:19.056Z,0.70
2024-01-24T09:47:48.419Z,0.30
2024-01-24T09:50:16.697Z,0.30
2024-01-24T09:52:47.178Z,0.30
2024-01-24T09:55:19.871Z,0.15
2024-01-24T09:57:47.697Z,0.10
2024-01-24T10:00:17.821Z,0.20
2024-01-24T10:02:47.682Z,0.40
2024-01-24T10:05:18.475Z,0.32
2024-01-24T10:07:46.870Z,0.20
2024-01-24T10:10:16.398Z,1.77
2024-01-24T10:12:45.031Z,0.57
2024-01-24T10:15:13.505Z,0.20
2024-01-24T10:17:43.718Z,0.20
2024-01-24T10:20:13.753Z,0.13
2024-01-24T10:22:43.239Z,0.10
2024-01-24T10:25:12.253Z,0.10
2024-01-24T10:27:40.260Z,0.35
2024-01-24T10:30:12.469Z,0.10
2024-01-24T10:32:40.687Z,0.20
2024-01-24T10:35:11.202Z,0.13
2024-01-24T10:37:39.197Z,0.32
2024-01-24T10:40:12.750Z,0.20
2024-01-24T10:42:42.870Z,0.25
2024-01-24T10:45:11.983Z,0.10
2024-01-24T10:47:41.532Z,0.20
2024-01-24T10:50:12.159Z,0.10
2024-01-24T10:52:41.637Z,0.10
2024-01-24T10:55:12.801Z,0.10
2024-01-24T10:57:42.192Z,0.20
2024-01-24T11:00:12.043Z,0.10
2024-01-24T11:02:42.282Z,0.20
2024-01-24T11:05:19.521Z,0.10
2024-01-24T11:07:55.087Z,0.00
2024-01-24T11:10:26.667Z,0.10
2024-01-24T11:12:54.715Z,0.15
2024-01-24T11:15:23.679Z,0.20
2024-01-24T11:18:26.419Z,0.00
2024-01-24T11:20:57.424Z,0.10
2024-01-24T11:23:41.794Z,0.08
2024-01-24T11:26:11.310Z,0.00
2024-01-24T11:28:39.366Z,0.00
2024-01-24T11:31:08.283Z,0.10
2024-01-24T11:33:36.300Z,0.10
2024-01-24T11:36:13.955Z,0.00
2024-01-24T11:38:41.507Z,0.32
2024-01-24T11:41:24.908Z,0.10
2024-01-24T11:43:52.512Z,0.10
2024-01-24T11:46:22.507Z,0.10
2024-01-24T11:48:50.503Z,0.17
2024-01-24T11:51:19.837Z,0.10
2024-01-24T11:53:47.513Z,0.10
2024-01-24T11:56:16.482Z,0.17
2024-01-24T11:58:44.358Z,0.05
2024-01-24T12:01:13.716Z,0.20
2024-01-24T12:03:48.020Z,0.10
2024-01-24T12:06:15.739Z,0.13
2024-01-24T12:08:48.196Z,0.17
2024-01-24T12:11:18.452Z,0.20
2024-01-24T12:13:47.100Z,0.45
2024-01-24T12:16:14.741Z,0.15
2024-01-24T12:18:43.550Z,0.20
2024-01-24T12:21:12.530Z,0.45
2024-01-24T12:23:39.554Z,0.20
2024-01-24T12:26:09.109Z,0.10
2024-01-24T12:28:36.897Z,0.28
2024-01-24T12:31:06.304Z,0.30
2024-01-24T12:33:36.618Z,0.10
2024-01-24T12:36:05.799Z,0.20
2024-01-24T12:38:35.852Z,1.02
2024-01-24T12:41:03.632Z,1.13
2024-01-24T12:43:33.269Z,0.50
2024-01-24T12:46:06.615Z,0.73
2024-01-24T12:48:34.501Z,0.25
2024-01-24T12:51:02.297Z,0.38
2024-01-24T12:53:30.138Z,0.30
2024-01-24T12:55:57.777Z,0.35
2024-01-24T12:58:25.408Z,0.60
2024-01-24T13:00:55.581Z,0.40
2024-01-24T13:03:24.295Z,0.45
2024-01-24T13:05:52.882Z,0.90
2024-01-24T13:08:21.767Z,0.65
2024-01-24T13:10:50.124Z,0.20
2024-01-24T13:13:18.175Z,0.45
2024-01-24T13:15:46.086Z,0.52
2024-01-24T13:18:15.135Z,0.28
2024-01-24T13:20:42.820Z,0.32
2024-01-24T13:23:10.360Z,0.20
2024-01-24T13:25:37.975Z,0.30
2024-01-24T13:28:06.737Z,0.32
2024-01-24T13:30:35.561Z,0.40
2024-01-24T13:33:03.291Z,0.30
2024-01-24T13:35:32.626Z,0.50
2024-01-24T13:38:00.659Z,1.05
2024-01-24T13:40:28.234Z,0.60
2024-01-24T13:42:55.866Z,0.40
2024-01-24T13:45:24.928Z,0.70
2024-01-24T13:47:52.512Z,0.82
2024-01-24T13:50:20.193Z,0.80
2024-01-24T13:52:49.112Z,0.50
2024-01-24T13:55:16.727Z,0.50
2024-01-24T13:57:45.185Z,0.60
2024-01-24T14:00:15.286Z,0.70
2024-01-24T14:02:44.186Z,0.95
2024-01-24T14:05:12.124Z,1.00
2024-01-24T14:07:43.638Z,0.73
2024-01-24T14:10:13.963Z,0.57
2024-01-24T14:12:41.829Z,0.60
2024-01-24T14:15:19.651Z,1.23
2024-01-24T14:17:55.885Z,0.80
2024-01-24T14:20:23.637Z,1.00
2024-01-24T14:22:51.276Z,1.20
2024-01-24T14:25:20.941Z,1.05
2024-01-24T14:27:48.524Z,0.98
2024-01-24T14:30:16.328Z,1.00
2024-01-24T14:32:43.921Z,0.90
2024-01-24T14:35:16.224Z,0.70
2024-01-24T14:37:43.978Z,1.23
2024-01-24T14:40:12.657Z,1.05
2024-01-24T14:42:41.701Z,0.63
2024-01-24T14:45:10.363Z,0.98
2024-01-24T14:47:38.104Z,1.40
2024-01-24T14:50:06.777Z,1.02
2024-01-24T14:52:34.513Z,0.85
2024-01-24T14:55:03.576Z,1.33
2024-01-24T14:57:33.084Z,1.00
2024-01-24T15:00:05.797Z,0.90
2024-01-24T15:02:34.274Z,8.55
2024-01-24T15:05:03.190Z,1.20
2024-01-24T15:07:30.840Z,1.13
2024-01-24T15:09:58.461Z,0.90
2024-01-24T15:12:28.269Z,0.82
2024-01-24T15:14:55.932Z,1.00
2024-01-24T15:17:24.839Z,1.48
2024-01-24T15:19:52.571Z,0.93
2024-01-24T15:22:22.477Z,0.93
2024-01-24T15:24:50.993Z,1.15
2024-01-24T15:27:18.723Z,0.85
2024-01-24T15:29:46.570Z,1.02
2024-01-24T15:32:14.116Z,1.40
2024-01-24T15:34:43.353Z,0.95
2024-01-24T15:37:11.226Z,1.27
2024-01-24T15:39:39.519Z,1.05
2024-01-24T15:42:12.174Z,1.10
2024-01-24T15:47:08.857Z,1.30
2024-01-24T15:49:36.524Z,1.27
2024-01-24T15:52:06.103Z,0.82
2024-01-24T15:54:33.771Z,0.95
2024-01-24T15:57:01.280Z,0.90
2024-01-24T15:59:28.952Z,0.98
2024-01-24T16:01:56.617Z,1.45
2024-01-24T16:04:24.479Z,0.98
2024-01-24T16:06:53.650Z,1.27
2024-01-24T16:09:22.714Z,1.33
2024-01-24T16:11:50.290Z,1.02
2024-01-24T16:14:19.017Z,1.10
2024-01-24T16:16:47.208Z,1.42
2024-01-24T16:19:14.855Z,2.08
2024-01-24T16:21:44.571Z,2.30
2024-01-24T16:24:12.141Z,1.98
2024-01-24T16:26:40.978Z,1.27
2024-01-24T16:29:08.448Z,1.25
2024-01-24T16:31:35.918Z,9.88
2024-01-24T16:34:04.017Z,7.00
2024-01-24T16:36:31.852Z,1.90
2024-01-24T16:38:59.420Z,1.50
2024-01-24T16:41:27.043Z,1.58
2024-01-24T16:43:56.029Z,1.67
2024-01-24T16:46:23.634Z,2.25
2024-01-24T16:48:51.516Z,1.58
2024-01-24T16:51:19.350Z,1.83
2024-01-24T16:53:46.920Z,1.58
2024-01-24T16:56:14.524Z,1.25
2024-01-24T16:58:42.577Z,1.17
2024-01-24T17:01:11.636Z,1.17
2024-01-24T17:03:39.543Z,1.60
2024-01-24T17:06:09.053Z,1.45
2024-01-24T17:08:37.595Z,1.58
2024-01-24T17:11:05.611Z,1.70
2024-01-24T17:13:33.195Z,1.92
2024-01-24T17:16:02.844Z,1.65
2024-01-24T17:18:31.984Z,12.52
2024-01-24T17:20:59.598Z,2.97
2024-01-24T17:23:27.129Z,2.45
2024-01-24T17:25:54.750Z,2.10
2024-01-24T17:28:22.323Z,1.48
2024-01-24T17:30:49.930Z,1.52
2024-01-24T17:33:18.893Z,1.80
2024-01-24T17:35:47.913Z,1.98
2024-01-24T17:38:15.617Z,2.00
2024-01-24T17:40:43.139Z,2.08
2024-01-24T17:43:11.306Z,1.60
2024-01-24T17:45:38.998Z,2.05
2024-01-24T17:48:07.893Z,2.03
2024-01-24T17:50:37.218Z,2.45
2024-01-24T17:53:06.610Z,1.92
2024-01-24T17:55:34.409Z,1.77
2024-01-24T17:58:02.155Z,2.10
2024-01-24T18:00:29.829Z,2.22
2024-01-24T18:02:57.729Z,15.35
2024-01-24T18:05:25.440Z,7.07
2024-01-24T18:07:53.187Z,2.83
2024-01-24T18:10:22.492Z,2.22
2024-01-24T18:12:50.088Z,2.50
2024-01-24T18:15:18.193Z,2.00
2024-01-24T18:17:45.834Z,2.35
2024-01-24T18:20:13.668Z,2.10
2024-01-24T18:22:42.953Z,2.35
2024-01-24T18:25:10.536Z,2.00
2024-01-24T18:27:39.522Z,2.00
2024-01-24T18:30:13.784Z,2.30
2024-01-24T18:32:41.806Z,2.97
2024-01-24T18:35:10.908Z,2.55
2024-01-24T18:37:39.248Z,2.28
2024-01-24T18:40:10.752Z,2.47
2024-01-24T18:42:41.571Z,2.10
2024-01-24T18:45:13.023Z,2.72
2024-01-24T18:47:41.669Z,2.00
2024-01-24T18:50:11.036Z,2.53
2024-01-24T18:52:39.581Z,2.10
2024-01-24T18:55:11.647Z,2.28
2024-01-24T18:57:40.884Z,2.50
2024-01-24T19:00:10.102Z,2.42
2024-01-24T19:02:38.860Z,2.45
2024-01-24T19:05:10.195Z,1.95
2024-01-24T19:07:42.297Z,2.58
2024-01-24T19:10:11.519Z,2.47
2024-01-24T19:12:43.096Z,2.20
2024-01-24T19:15:18.979Z,2.08
2024-01-24T19:17:49.716Z,3.63
2024-01-24T19:20:19.072Z,3.20
2024-01-24T19:22:46.956Z,2.53
2024-01-24T19:25:14.598Z,2.75
2024-01-24T19:27:43.988Z,2.13
2024-01-24T19:30:12.738Z,2.90
2024-01-24T19:32:41.647Z,2.28
2024-01-24T19:35:10.651Z,2.92
2024-01-24T19:37:42.791Z,3.70
2024-01-24T19:42:49.996Z,2.40
2024-01-24T19:45:17.820Z,2.15
2024-01-24T19:47:46.334Z,3.42
2024-01-24T19:50:13.936Z,3.08
2024-01-24T19:52:41.457Z,2.53
2024-01-24T19:55:10.261Z,3.33
2024-01-24T19:57:37.969Z,15.48
2024-01-24T20:00:12.502Z,4.03
2024-01-24T20:02:40.577Z,3.40
2024-01-24T20:07:46.668Z,3.45
2024-01-24T20:10:16.798Z,4.28
2024-01-24T21:44:54.890Z,3.92
2024-01-24T21:47:22.408Z,3.97
2024-01-24T21:49:50.289Z,3.15
2024-01-24T21:52:18.691Z,3.70
2024-01-24T21:54:50.684Z,3.15
2024-01-24T21:57:18.841Z,3.80
2024-01-24T21:59:46.678Z,3.85
2024-01-24T22:02:15.823Z,4.15
2024-01-24T22:04:44.140Z,3.20
2024-01-24T22:07:12.339Z,2.97
2024-01-24T22:09:40.085Z,3.45
2024-01-24T22:12:10.071Z,3.97
2024-01-24T22:14:37.664Z,3.63
2024-01-24T22:17:05.583Z,3.85
2024-01-24T22:19:34.586Z,3.40
2024-01-24T22:22:02.387Z,3.85
2024-01-24T22:24:30.100Z,3.45
2024-01-24T22:26:57.834Z,3.65
2024-01-24T22:29:25.457Z,3.25
2024-01-24T22:31:53.067Z,3.42
2024-01-24T22:34:20.804Z,5.22
2024-01-24T22:36:49.920Z,4.57
2024-01-24T22:39:17.480Z,3.80
2024-01-24T22:41:45.037Z,3.05
2024-01-24T22:44:12.805Z,3.85
2024-01-24T22:46:41.262Z,3.05
2024-01-24T22:49:09.237Z,3.58
2024-01-24T22:51:36.995Z,3.22
2024-01-24T22:54:07.132Z,3.17
2024-01-24T22:56:34.686Z,3.80
2024-01-24T22:59:02.205Z,3.50
2024-01-24T23:01:29.876Z,3.65
2024-01-24T23:03:58.044Z,3.95
2024-01-24T23:06:25.768Z,3.88
2024-01-24T23:08:53.353Z,3.65
2024-01-24T23:11:22.460Z,3.67
2024-01-24T23:13:50.062Z,5.15
2024-01-24T23:16:17.828Z,3.35
2024-01-24T23:18:45.586Z,4.07
2024-01-24T23:21:13.218Z,3.83
2024-01-24T23:23:41.329Z,3.80
2024-01-24T23:26:08.855Z,4.00
2024-01-24T23:28:37.862Z,4.10
2024-01-24T23:31:05.918Z,4.18
2024-01-24T23:33:35.671Z,3.58
2024-01-24T23:36:05.029Z,4.15
2024-01-24T23:38:32.736Z,3.05
2024-01-24T23:41:00.438Z,3.05
2024-01-24T23:43:28.029Z,3.25
2024-01-24T23:45:57.137Z,3.15
2024-01-24T23:48:24.986Z,3.10
2024-01-24T23:50:52.934Z,4.15
2024-01-24T23:53:20.598Z,4.53
2024-01-24T23:55:48.747Z,3.55
2024-01-24T23:58:16.455Z,3.35
